Time;durP1;ratioP1;P1;durP2;ratioP2;P2;SDS_P1;SDS_P2;PMS_P1;PMS_P2;Temp;Humidity;BMP_temperature;BMP_pressure;BME280_temperature;BME280_humidity;BME280_pressure;Samples;Min_cycle;Max_cycle;Signal;HPM_P1;HPM_P2
2023/12/26 00:01:30;;;;;;;7.82;1.50;;;10.20;99.90;;;;;;5015064;28;20069;-60
2023/12/26 00:03:57;;;;;;;12.80;2.03;;;10.10;99.90;;;;;;5016507;28;20050;-66
2023/12/26 00:06:24;;;;;;;9.20;2.08;;;10.10;99.90;;;;;;5016692;28;20042;-66
2023/12/26 00:08:51;;;;;;;7.80;1.60;;;10.10;99.90;;;;;;5016666;28;20041;-68
2023/12/26 00:11:18;;;;;;;8.70;1.92;;;10.10;99.90;;;;;;5016460;28;20041;-67
2023/12/26 00:13:44;;;;;;;12.57;1.92;;;10.00;99.90;;;;;;5016011;28;20057;-67
2023/12/26 00:16:11;;;;;;;10.05;1.98;;;10.00;99.90;;;;;;5015920;28;20034;-60
2023/12/26 00:18:38;;;;;;;12.85;2.03;;;10.00;99.90;;;;;;5015846;28;20038;-67
2023/12/26 00:21:05;;;;;;;13.13;2.40;;;9.90;99.90;;;;;;5016036;28;20037;-68
2023/12/26 00:23:32;;;;;;;7.57;1.77;;;9.90;99.90;;;;;;5015934;28;20506;-66
2023/12/26 00:25:59;;;;;;;6.22;1.85;;;9.90;99.90;;;;;;5014701;28;20042;-65
2023/12/26 00:28:26;;;;;;;6.63;1.63;;;9.90;99.90;;;;;;5016158;28;20046;-66
2023/12/26 00:30:52;;;;;;;10.48;1.88;;;9.90;99.90;;;;;;5014300;28;20080;-66
2023/12/26 00:33:19;;;;;;;11.90;2.00;;;9.90;99.90;;;;;;5014199;28;20427;-66
2023/12/26 00:35:46;;;;;;;11.02;1.98;;;9.90;99.90;;;;;;5015610;28;20049;-65
2023/12/26 00:38:13;;;;;;;8.88;1.95;;;9.90;99.90;;;;;;5015862;28;20046;-65
2023/12/26 00:40:41;;;;;;;14.20;2.15;;;9.90;99.90;;;;;;5014529;28;20440;-65
2023/12/26 00:43:08;;;;;;;11.77;2.05;;;9.90;99.90;;;;;;4998199;28;20037;-65
2023/12/26 00:45:35;;;;;;;12.35;2.25;;;9.90;99.90;;;;;;5015518;28;20038;-65
2023/12/26 00:48:02;;;;;;;11.35;1.98;;;9.90;99.90;;;;;;5015815;28;20069;-65
2023/12/26 00:50:29;;;;;;;11.40;1.98;;;9.90;99.90;;;;;;5015365;28;20050;-65
2023/12/26 00:52:56;;;;;;;8.32;2.05;;;9.90;99.90;;;;;;4997647;28;20073;-65
2023/12/26 00:55:25;;;;;;;10.88;1.80;;;9.90;99.90;;;;;;5015587;28;20084;-66
2023/12/26 00:57:52;;;;;;;13.18;1.83;;;9.90;99.90;;;;;;5015766;28;20485;-66
2023/12/26 01:00:19;;;;;;;10.68;2.00;;;9.90;99.90;;;;;;5014067;28;20501;-65
2023/12/26 01:02:46;;;;;;;12.65;2.28;;;9.90;99.90;;;;;;5013695;28;20080;-66
2023/12/26 01:05:12;;;;;;;13.13;2.50;;;9.90;99.90;;;;;;5015076;28;20034;-65
2023/12/26 01:07:41;;;;;;;12.13;2.22;;;10.00;99.90;;;;;;5014986;28;20487;-66
2023/12/26 01:10:08;;;;;;;13.48;2.25;;;10.00;99.90;;;;;;5014873;28;20045;-66
2023/12/26 01:12:35;;;;;;;8.20;2.00;;;10.00;99.90;;;;;;5013261;28;20092;-65
2023/12/26 01:15:02;;;;;;;9.70;2.35;;;10.00;99.90;;;;;;5015096;28;20111;-66
2023/12/26 01:17:29;;;;;;;11.13;2.17;;;10.00;99.90;;;;;;5014693;28;20041;-60
2023/12/26 01:19:57;;;;;;;14.82;2.80;;;10.00;99.90;;;;;;5013376;28;20069;-61
2023/12/26 01:22:24;;;;;;;10.73;2.10;;;10.00;99.90;;;;;;5014941;28;20052;-61
2023/12/26 01:24:51;;;;;;;10.93;2.08;;;9.90;99.90;;;;;;5015048;28;20471;-60
2023/12/26 01:27:18;;;;;;;13.75;2.35;;;9.90;99.90;;;;;;5015072;28;20056;-65
2023/12/26 01:29:45;;;;;;;11.77;2.33;;;9.90;99.90;;;;;;5013466;28;20042;-65
2023/12/26 01:32:12;;;;;;;10.35;2.15;;;9.90;99.90;;;;;;5014832;28;20444;-60
2023/12/26 01:34:39;;;;;;;9.57;2.03;;;9.80;99.90;;;;;;5014602;28;20049;-65
2023/12/26 01:37:06;;;;;;;10.52;2.30;;;9.80;99.90;;;;;;5014657;28;20092;-65
2023/12/26 01:39:33;;;;;;;10.00;2.15;;;9.70;99.90;;;;;;5013574;28;20042;-65
2023/12/26 01:42:00;;;;;;;15.07;2.10;;;9.70;99.90;;;;;;5013846;28;20042;-65
2023/12/26 01:44:27;;;;;;;11.85;2.05;;;9.70;99.90;;;;;;5014255;28;20049;-60
2023/12/26 01:46:53;;;;;;;15.18;2.60;;;9.60;99.90;;;;;;5013114;28;20518;-59
2023/12/26 01:49:20;;;;;;;15.35;2.28;;;9.60;99.90;;;;;;5014556;28;20049;-59
2023/12/26 01:51:48;;;;;;;9.95;1.60;;;9.60;99.90;;;;;;5013234;28;20042;-59
2023/12/26 01:54:15;;;;;;;12.30;1.95;;;9.60;99.90;;;;;;5012799;28;20042;-60
2023/12/26 01:56:42;;;;;;;11.60;2.60;;;9.50;99.90;;;;;;5014671;28;20475;-60
2023/12/26 01:59:08;;;;;;;10.98;2.28;;;9.50;99.90;;;;;;5013261;28;20042;-60
2023/12/26 02:01:35;;;;;;;13.57;1.90;;;9.50;99.90;;;;;;5014326;28;20038;-60
2023/12/26 02:04:03;;;;;;;12.75;2.10;;;9.40;99.90;;;;;;5014250;28;20430;-60
2023/12/26 02:06:30;;;;;;;7.13;1.75;;;9.40;99.90;;;;;;5014454;28;20474;-60
2023/12/26 02:08:57;;;;;;;9.63;1.85;;;9.40;99.90;;;;;;5013122;28;20113;-61
2023/12/26 02:11:23;;;;;;;11.57;2.40;;;9.40;99.90;;;;;;5014355;28;20046;-60
2023/12/26 02:13:50;;;;;;;12.95;2.20;;;9.40;99.90;;;;;;5014214;28;20446;-60
2023/12/26 02:16:18;;;;;;;10.00;1.98;;;9.30;99.90;;;;;;5012498;28;20045;-59
2023/12/26 02:18:47;;;;;;;13.48;2.50;;;9.30;99.90;;;;;;5012828;28;20483;-64
2023/12/26 02:21:14;;;;;;;14.68;2.38;;;9.20;99.90;;;;;;5012358;28;20037;-64
2023/12/26 02:23:41;;;;;;;10.45;1.92;;;9.20;99.90;;;;;;5012415;28;20042;-65
2023/12/26 02:26:08;;;;;;;12.45;2.10;;;9.20;99.90;;;;;;5013851;28;20037;-65
2023/12/26 02:28:35;;;;;;;10.98;2.03;;;9.10;99.90;;;;;;5014022;28;20049;-64
2023/12/26 02:31:02;;;;;;;9.23;1.65;;;9.10;99.90;;;;;;5013864;28;20050;-65
2023/12/26 02:33:29;;;;;;;13.07;2.45;;;9.10;99.90;;;;;;5013814;28;20067;-64
2023/12/26 02:35:56;;;;;;;7.28;1.60;;;9.00;99.90;;;;;;5014093;28;20073;-65
2023/12/26 02:38:23;;;;;;;10.98;2.05;;;9.00;99.90;;;;;;5012379;28;20046;-65
2023/12/26 02:40:52;;;;;;;12.25;1.88;;;9.00;99.90;;;;;;5013533;28;20046;-64
2023/12/26 02:43:19;;;;;;;10.73;1.80;;;8.90;99.90;;;;;;5012325;28;20535;-64
2023/12/26 02:45:48;;;;;;;11.25;1.80;;;8.90;99.90;;;;;;5012535;28;20046;-64
2023/12/26 02:48:16;;;;;;;20.77;2.75;;;8.80;99.90;;;;;;5013733;28;20065;-65
2023/12/26 02:50:42;;;;;;;13.82;1.95;;;8.80;99.90;;;;;;5013171;28;20038;-64
2023/12/26 02:53:09;;;;;;;9.00;1.85;;;8.80;99.90;;;;;;5013832;28;20045;-64
2023/12/26 02:55:36;;;;;;;11.30;2.00;;;8.80;99.90;;;;;;5013688;28;20053;-64
2023/12/26 02:58:03;;;;;;;11.32;2.03;;;8.70;99.90;;;;;;5012123;28;20096;-63
2023/12/26 03:00:30;;;;;;;9.70;1.80;;;8.70;99.90;;;;;;5012288;28;20042;-64
2023/12/26 03:02:57;;;;;;;11.65;1.92;;;8.70;99.90;;;;;;4996021;28;20449;-64
2023/12/26 03:05:24;;;;;;;11.23;1.98;;;8.70;99.90;;;;;;5013995;28;20038;-64
2023/12/26 03:07:51;;;;;;;13.75;2.17;;;8.60;99.90;;;;;;5013389;28;20143;-63
2023/12/26 03:10:18;;;;;;;10.93;2.13;;;8.60;99.90;;;;;;5013109;28;20056;-65
2023/12/26 03:12:44;;;;;;;10.52;1.80;;;8.60;99.90;;;;;;5011634;28;20081;-64
2023/12/26 03:15:11;;;;;;;13.30;2.38;;;8.60;99.90;;;;;;4995853;28;20049;-64
2023/12/26 03:17:39;;;;;;;10.35;1.70;;;8.50;99.90;;;;;;5013596;28;20462;-64
2023/12/26 03:20:06;;;;;;;11.80;2.13;;;8.50;99.90;;;;;;5011766;28;20034;-59
2023/12/26 03:22:32;;;;;;;12.93;3.13;;;8.50;99.90;;;;;;5013387;28;20466;-59
2023/12/26 03:25:00;;;;;;;12.13;1.85;;;8.50;99.90;;;;;;4995542;28;20038;-59
2023/12/26 03:27:29;;;;;;;12.77;1.92;;;8.50;99.90;;;;;;5012241;28;20433;-60
2023/12/26 03:29:56;;;;;;;11.43;2.05;;;8.50;99.90;;;;;;5012895;28;20049;-60
2023/12/26 03:32:24;;;;;;;11.82;2.70;;;8.40;99.90;;;;;;5011854;28;20045;-60
2023/12/26 03:34:51;;;;;;;15.02;2.30;;;8.40;99.90;;;;;;5012881;28;20096;-60
2023/12/26 03:37:18;;;;;;;13.57;2.10;;;8.40;99.90;;;;;;5015928;28;20422;-60
2023/12/26 03:39:44;;;;;;;15.63;2.15;;;8.40;99.90;;;;;;5017011;28;20088;-60
2023/12/26 03:42:11;;;;;;;16.50;2.75;;;8.40;99.90;;;;;;5017055;28;20121;-59
2023/12/26 03:44:38;;;;;;;14.40;1.95;;;8.30;99.90;;;;;;5015539;28;20111;-60
2023/12/26 03:47:06;;;;;;;11.88;2.78;;;8.30;99.90;;;;;;5015753;28;20044;-59
2023/12/26 03:49:33;;;;;;;11.88;2.17;;;8.30;99.90;;;;;;5016403;28;20121;-59
2023/12/26 03:52:00;;;;;;;11.88;2.00;;;8.30;99.90;;;;;;5015014;28;20123;-60
2023/12/26 03:54:27;;;;;;;12.70;2.00;;;8.30;99.90;;;;;;5015008;28;20494;-59
2023/12/26 03:56:54;;;;;;;16.67;2.80;;;8.20;99.90;;;;;;5016642;28;20116;-59
2023/12/26 03:59:20;;;;;;;21.15;3.10;;;8.20;99.90;;;;;;5015201;28;20048;-59
2023/12/26 04:01:47;;;;;;;13.90;2.40;;;8.20;99.90;;;;;;4998997;28;20526;-60
2023/12/26 04:04:14;;;;;;;16.08;2.50;;;8.20;99.90;;;;;;4999144;28;20057;-60
2023/12/26 04:06:41;;;;;;;14.80;2.63;;;8.20;99.90;;;;;;5016555;28;20088;-60
2023/12/26 04:09:09;;;;;;;19.42;2.97;;;8.20;99.90;;;;;;5015037;28;20138;-59
2023/12/26 04:11:37;;;;;;;11.05;2.35;;;8.20;99.90;;;;;;5014930;28;20077;-59
2023/12/26 04:14:04;;;;;;;14.15;2.60;;;8.20;99.90;;;;;;5015071;28;20058;-60
2023/12/26 04:16:31;;;;;;;12.18;2.20;;;8.20;99.90;;;;;;5016621;28;20121;-60
2023/12/26 04:18:58;;;;;;;13.80;2.40;;;8.20;99.90;;;;;;5016292;28;20038;-59
2023/12/26 04:21:26;;;;;;;15.25;2.65;;;8.20;99.90;;;;;;5016316;28;20041;-64
2023/12/26 04:23:53;;;;;;;17.20;2.78;;;8.20;99.90;;;;;;5015905;28;20037;-59
2023/12/26 04:26:19;;;;;;;17.80;2.08;;;8.20;99.90;;;;;;5015715;28;20116;-63
2023/12/26 04:28:46;;;;;;;15.38;2.97;;;8.20;99.90;;;;;;4998351;28;20380;-64
2023/12/26 04:31:13;;;;;;;11.65;2.25;;;8.20;99.90;;;;;;5014590;28;20093;-64
2023/12/26 04:33:40;;;;;;;18.92;3.13;;;8.10;99.90;;;;;;5014697;28;20042;-64
2023/12/26 04:36:07;;;;;;;22.60;3.45;;;8.10;99.90;;;;;;5014615;28;20092;-64
2023/12/26 04:38:34;;;;;;;15.82;3.28;;;8.10;99.90;;;;;;5014666;28;20057;-64
2023/12/26 04:41:01;;;;;;;18.95;2.58;;;8.10;99.90;;;;;;5016049;28;20108;-64
2023/12/26 04:43:28;;;;;;;16.25;2.65;;;8.10;99.90;;;;;;5015628;28;20038;-64
2023/12/26 04:45:55;;;;;;;17.10;2.65;;;8.10;99.90;;;;;;5014645;28;20052;-64
2023/12/26 04:48:22;;;;;;;17.75;2.38;;;8.10;99.90;;;;;;5013037;28;20065;-64
2023/12/26 04:50:49;;;;;;;15.75;2.60;;;8.10;99.90;;;;;;5014243;28;20057;-64
2023/12/26 04:53:16;;;;;;;12.90;2.53;;;8.00;99.90;;;;;;5014318;28;20471;-64
2023/12/26 04:55:43;;;;;;;12.57;2.95;;;8.00;99.90;;;;;;5013943;28;20468;-64
2023/12/26 04:58:09;;;;;;;16.80;2.95;;;8.00;99.90;;;;;;5015251;28;20050;-64
2023/12/26 05:00:37;;;;;;;13.40;2.55;;;8.00;99.90;;;;;;5015435;28;20042;-64
2023/12/26 05:03:04;;;;;;;13.88;2.38;;;8.00;99.90;;;;;;5014346;28;20124;-60
2023/12/26 05:05:31;;;;;;;14.43;2.25;;;8.00;99.90;;;;;;5014336;28;20426;-60
2023/12/26 05:07:58;;;;;;;17.77;2.80;;;8.00;99.90;;;;;;5014113;28;20089;-60
2023/12/26 05:10:25;;;;;;;14.23;2.95;;;8.00;99.90;;;;;;5014221;28;20145;-60
2023/12/26 05:12:52;;;;;;;16.88;3.17;;;8.00;99.90;;;;;;5013359;28;20084;-60
2023/12/26 05:15:21;;;;;;;20.25;2.85;;;7.90;99.90;;;;;;5013821;28;20498;-60
2023/12/26 05:17:48;;;;;;;15.43;2.67;;;7.90;99.90;;;;;;5015010;28;20050;-60
2023/12/26 05:20:15;;;;;;;19.75;3.35;;;7.90;99.90;;;;;;5013918;28;20042;-59
2023/12/26 05:22:56;;;;;;;14.43;2.55;;;7.90;99.90;;;;;;5013893;28;20052;-60
2023/12/26 05:25:24;;;;;;;16.05;4.07;;;7.90;99.90;;;;;;5013649;28;20394;-60
2023/12/26 05:27:52;;;;;;;12.43;2.28;;;7.80;99.90;;;;;;5013533;28;20046;-62
2023/12/26 05:30:19;;;;;;;14.10;2.30;;;7.80;99.90;;;;;;5014781;28;20049;-63
2023/12/26 05:32:47;;;;;;;14.75;2.30;;;7.80;99.90;;;;;;5013307;28;20042;-60
2023/12/26 05:35:16;;;;;;;14.00;2.25;;;7.80;99.90;;;;;;5013816;28;20443;-60
2023/12/26 05:37:45;;;;;;;10.68;2.05;;;7.80;99.90;;;;;;5013768;28;20510;-60
2023/12/26 05:40:11;;;;;;;14.73;2.72;;;7.80;99.90;;;;;;5014726;28;20057;-60
2023/12/26 05:42:38;;;;;;;11.85;2.42;;;7.80;99.90;;;;;;5013184;28;20071;-60
2023/12/26 05:45:05;;;;;;;17.77;2.35;;;7.80;99.90;;;;;;5013236;28;20042;-60
2023/12/26 05:47:32;;;;;;;15.75;2.42;;;7.70;99.90;;;;;;5012926;28;20038;-60
2023/12/26 05:49:59;;;;;;;16.75;2.63;;;7.70;99.90;;;;;;5012999;28;20046;-60
2023/12/26 05:52:27;;;;;;;15.10;2.55;;;7.70;99.90;;;;;;5013574;28;20056;-60
2023/12/26 05:54:55;;;;;;;13.70;2.53;;;7.70;99.90;;;;;;5012759;28;20069;-60
2023/12/26 05:57:22;;;;;;;12.63;2.40;;;7.70;99.90;;;;;;5013056;28;20120;-64
2023/12/26 05:59:49;;;;;;;21.13;2.90;;;7.70;99.90;;;;;;5012755;28;20050;-59
2023/12/26 06:02:15;;;;;;;18.88;3.28;;;7.70;99.90;;;;;;5014422;28;20042;-64
2023/12/26 06:04:42;;;;;;;13.43;2.17;;;7.70;99.90;;;;;;5013122;28;20140;-64
2023/12/26 06:07:09;;;;;;;13.68;2.00;;;7.70;99.90;;;;;;5013914;28;20034;-64
2023/12/26 06:09:36;;;;;;;11.60;2.20;;;7.70;99.90;;;;;;5012676;28;20053;-64
2023/12/26 06:12:03;;;;;;;13.27;2.08;;;7.70;99.90;;;;;;5012711;28;20046;-64
2023/12/26 06:14:31;;;;;;;12.48;2.50;;;7.70;99.90;;;;;;5013979;28;20041;-64
2023/12/26 06:17:00;;;;;;;14.55;2.17;;;7.70;99.90;;;;;;5012466;28;20279;-64
2023/12/26 06:19:27;;;;;;;13.30;2.33;;;7.70;99.90;;;;;;5013538;28;20046;-64
2023/12/26 06:21:54;;;;;;;14.70;2.65;;;7.70;99.90;;;;;;5012516;28;20041;-64
2023/12/26 06:24:21;;;;;;;10.75;2.22;;;7.70;99.90;;;;;;5012316;28;20050;-64
2023/12/26 06:26:48;;;;;;;12.07;1.95;;;7.70;99.90;;;;;;5012398;28;20482;-64
2023/12/26 06:29:15;;;;;;;14.85;2.67;;;7.70;99.90;;;;;;5012835;28;20049;-64
2023/12/26 06:31:42;;;;;;;13.80;2.10;;;7.70;99.90;;;;;;5013038;28;20092;-64
2023/12/26 06:34:09;;;;;;;12.70;2.63;;;7.70;99.90;;;;;;5012842;28;20131;-60
2023/12/26 06:36:37;;;;;;;16.33;2.60;;;7.70;99.90;;;;;;5012157;28;20046;-59
2023/12/26 06:39:04;;;;;;;12.85;2.60;;;7.70;99.90;;;;;;5013639;28;20366;-58
2023/12/26 06:41:31;;;;;;;14.45;2.97;;;7.70;99.90;;;;;;5012488;28;20080;-60
2023/12/26 06:43:58;;;;;;;13.75;2.13;;;7.60;99.90;;;;;;5012503;28;20409;-59
2023/12/26 06:46:25;;;;;;;15.30;3.47;;;7.60;99.90;;;;;;5014040;28;20041;-60
2023/12/26 06:48:53;;;;;;;10.90;2.03;;;7.60;99.90;;;;;;5012451;28;20443;-61
2023/12/26 06:51:20;;;;;;;15.70;2.25;;;7.60;99.90;;;;;;5012131;28;20392;-60
2023/12/26 06:53:47;;;;;;;9.63;1.83;;;7.60;99.90;;;;;;4996252;28;20347;-61
2023/12/26 06:56:14;;;;;;;10.98;2.47;;;7.50;99.90;;;;;;5013831;28;20073;-60
2023/12/26 06:58:41;;;;;;;17.10;2.97;;;7.50;99.90;;;;;;5012384;28;20137;-60
2023/12/26 07:01:09;;;;;;;14.15;2.35;;;7.50;99.90;;;;;;5012582;28;20042;-60
2023/12/26 07:03:36;;;;;;;17.25;2.22;;;7.50;99.90;;;;;;5012065;28;20046;-60
2023/12/26 07:06:03;;;;;;;15.02;2.65;;;7.50;99.90;;;;;;5012149;28;20041;-60
2023/12/26 07:08:30;;;;;;;11.82;2.50;;;7.50;99.90;;;;;;5013342;28;20129;-60
2023/12/26 07:10:57;;;;;;;17.20;2.13;;;7.40;99.90;;;;;;5014541;28;20093;-60
2023/12/26 07:13:24;;;;;;;12.52;2.40;;;7.40;99.90;;;;;;5017393;28;20064;-63
2023/12/26 07:15:52;;;;;;;12.68;2.42;;;7.40;99.90;;;;;;5017574;28;20041;-63
2023/12/26 07:18:19;;;;;;;16.33;2.78;;;7.40;99.90;;;;;;5017102;28;20052;-63
2023/12/26 07:20:46;;;;;;;16.98;3.30;;;7.30;99.90;;;;;;5017328;28;20124;-64
2023/12/26 07:23:13;;;;;;;13.70;2.35;;;7.30;99.90;;;;;;5017037;28;20042;-59
2023/12/26 07:25:41;;;;;;;16.77;2.40;;;7.30;99.90;;;;;;5017301;28;20050;-58
2023/12/26 07:28:08;;;;;;;15.70;2.35;;;7.30;99.90;;;;;;5015618;28;20092;-63
2023/12/26 07:30:34;;;;;;;21.00;3.17;;;7.30;99.90;;;;;;5016830;28;20046;-60
2023/12/26 07:33:01;;;;;;;12.15;2.60;;;7.20;99.90;;;;;;5016756;28;20084;-61
2023/12/26 07:35:30;;;;;;;15.80;2.40;;;7.20;99.90;;;;;;5016830;28;20124;-62
2023/12/26 07:37:57;;;;;;;13.40;2.45;;;7.20;99.90;;;;;;5016664;28;20069;-63
2023/12/26 07:40:24;;;;;;;15.13;2.50;;;7.20;99.90;;;;;;5015448;28;20045;-62
2023/12/26 07:42:50;;;;;;;16.95;2.45;;;7.20;99.90;;;;;;5016610;28;20045;-64
2023/12/26 07:45:22;;;;;;;15.68;2.60;;;7.20;99.90;;;;;;5016768;28;20046;-64
2023/12/26 07:47:50;;;;;;;14.88;2.72;;;7.20;99.90;;;;;;5016747;28;20053;-63
2023/12/26 07:50:17;;;;;;;11.95;2.22;;;7.10;99.90;;;;;;5016917;28;20042;-63
2023/12/26 07:52:44;;;;;;;15.55;2.33;;;7.10;99.90;;;;;;5016774;28;20038;-63
2023/12/26 07:55:11;;;;;;;14.80;2.35;;;7.10;99.90;;;;;;5016806;28;20042;-63
2023/12/26 07:57:39;;;;;;;17.02;2.88;;;7.10;99.90;;;;;;5016522;28;20050;-59
2023/12/26 08:00:06;;;;;;;15.77;2.40;;;7.10;99.90;;;;;;5016273;28;20042;-59
2023/12/26 08:02:39;;;;;;;15.73;2.67;;;7.10;99.90;;;;;;5016894;28;20426;-63
2023/12/26 08:05:06;;;;;;;17.38;2.45;;;7.10;99.90;;;;;;5016044;28;20125;-64
2023/12/26 08:07:33;;;;;;;11.50;2.60;;;7.10;99.90;;;;;;5015129;28;20104;-59
2023/12/26 08:10:00;;;;;;;14.13;2.70;;;7.10;99.90;;;;;;5016280;28;20050;-63
2023/12/26 08:12:27;;;;;;;11.98;2.35;;;7.10;99.90;;;;;;5015910;28;20053;-62
2023/12/26 08:14:53;;;;;;;19.48;3.33;;;7.00;99.90;;;;;;5016235;28;20190;-59
2023/12/26 08:17:20;;;;;;;16.52;2.78;;;7.00;99.90;;;;;;5016152;28;20436;-59
2023/12/26 08:19:49;;;;;;;12.73;2.60;;;7.00;99.90;;;;;;5015187;28;20050;-59
2023/12/26 08:22:16;;;;;;;14.32;2.63;;;7.00;99.90;;;;;;5015984;28;20092;-60
2023/12/26 08:24:43;;;;;;;10.13;2.05;;;7.00;99.90;;;;;;5014615;28;20038;-59
2023/12/26 08:27:09;;;;;;;16.65;2.45;;;7.00;99.90;;;;;;5016265;28;20041;-59
2023/12/26 08:29:36;;;;;;;10.13;2.35;;;7.00;99.90;;;;;;5015995;28;20054;-58
2023/12/26 08:32:03;;;;;;;20.27;2.70;;;7.00;99.90;;;;;;5015688;28;20053;-60
2023/12/26 08:34:30;;;;;;;18.20;2.45;;;7.00;99.90;;;;;;5014394;28;20108;-62
2023/12/26 08:36:57;;;;;;;15.55;2.63;;;7.00;99.90;;;;;;5016075;28;20073;-62
2023/12/26 08:39:24;;;;;;;18.27;2.97;;;7.00;99.90;;;;;;5016316;28;20116;-58
2023/12/26 08:41:51;;;;;;;17.77;3.22;;;7.00;99.90;;;;;;5015852;28;20033;-61
2023/12/26 08:44:17;;;;;;;11.32;2.40;;;7.00;99.90;;;;;;5015673;28;20041;-59
2023/12/26 08:46:44;;;;;;;17.20;2.30;;;7.10;99.90;;;;;;5015773;28;20037;-60
2023/12/26 08:49:11;;;;;;;13.52;2.55;;;7.10;99.90;;;;;;5015374;28;20491;-59
2023/12/26 08:51:41;;;;;;;15.05;2.75;;;7.10;99.90;;;;;;5015294;28;20042;-59
2023/12/26 08:54:08;;;;;;;15.48;2.47;;;7.00;99.90;;;;;;5014094;28;20046;-60
2023/12/26 08:56:35;;;;;;;12.57;2.03;;;7.10;99.90;;;;;;5015190;28;20046;-57
2023/12/26 08:59:02;;;;;;;15.90;2.65;;;7.10;99.90;;;;;;5015369;28;20052;-59
2023/12/26 09:01:29;;;;;;;17.27;2.70;;;7.10;99.90;;;;;;5015745;28;20498;-59
2023/12/26 09:03:56;;;;;;;13.82;2.47;;;7.00;99.90;;;;;;5015047;28;20096;-60
2023/12/26 09:06:23;;;;;;;12.07;2.35;;;7.10;99.90;;;;;;5015221;28;20041;-63
2023/12/26 09:08:50;;;;;;;20.85;3.85;;;7.10;99.90;;;;;;5014921;28;20376;-63
2023/12/26 09:11:17;;;;;;;14.82;2.47;;;7.10;99.90;;;;;;5014992;28;20146;-64
2023/12/26 09:13:43;;;;;;;14.82;2.30;;;7.10;99.90;;;;;;5014767;28;20096;-62
2023/12/26 09:16:10;;;;;;;13.82;2.65;;;7.10;99.90;;;;;;5015673;28;20045;-64
2023/12/26 09:18:37;;;;;;;17.42;2.40;;;7.10;99.90;;;;;;5014673;28;20128;-64
2023/12/26 09:21:04;;;;;;;19.58;3.20;;;7.10;99.90;;;;;;5013974;28;20046;-64
2023/12/26 09:23:31;;;;;;;16.42;2.60;;;7.20;99.90;;;;;;5014712;28;20046;-64
2023/12/26 09:25:58;;;;;;;9.77;2.40;;;7.20;99.90;;;;;;5014949;28;20030;-64
2023/12/26 09:28:25;;;;;;;19.65;2.92;;;7.20;99.90;;;;;;5015354;28;20046;-64
2023/12/26 09:30:52;;;;;;;20.38;2.42;;;7.30;99.90;;;;;;5015031;28;20042;-64
2023/12/26 09:33:18;;;;;;;15.95;3.65;;;7.30;99.90;;;;;;5014297;28;20509;-64
2023/12/26 09:35:45;;;;;;;16.10;2.70;;;7.40;99.90;;;;;;5014892;28;20068;-64
2023/12/26 09:38:12;;;;;;;15.02;3.13;;;7.40;99.90;;;;;;5014899;28;20045;-64
2023/12/26 09:40:39;;;;;;;16.90;2.58;;;7.40;99.90;;;;;;5014740;28;20041;-64
2023/12/26 09:43:07;;;;;;;12.85;2.55;;;7.40;99.90;;;;;;5014693;28;20052;-64
2023/12/26 09:45:34;;;;;;;12.13;2.50;;;7.40;99.90;;;;;;5014413;28;20037;-64
2023/12/26 09:48:01;;;;;;;15.48;3.45;;;7.40;99.90;;;;;;5015070;28;20376;-63
2023/12/26 09:50:28;;;;;;;13.52;2.35;;;7.40;99.90;;;;;;5014490;28;20042;-63
2023/12/26 09:52:58;;;;;;;10.38;2.42;;;7.50;99.90;;;;;;5014659;28;20050;-63
2023/12/26 09:55:25;;;;;;;15.75;2.72;;;7.50;99.90;;;;;;5013561;28;20395;-63
2023/12/26 09:57:51;;;;;;;13.73;2.65;;;7.50;99.90;;;;;;5014111;28;20046;-63
2023/12/26 10:00:18;;;;;;;15.60;2.90;;;7.50;99.90;;;;;;5014452;28;20042;-63
2023/12/26 10:02:45;;;;;;;13.70;2.50;;;7.50;99.90;;;;;;5014295;28;20045;-62
2023/12/26 10:05:12;;;;;;;21.30;3.53;;;7.60;99.90;;;;;;5013988;28;20041;-63
2023/12/26 10:07:39;;;;;;;11.77;2.60;;;7.60;99.90;;;;;;5012974;28;20042;-63
2023/12/26 10:10:06;;;;;;;18.05;3.00;;;7.60;99.90;;;;;;5014106;28;20124;-63
2023/12/26 10:12:35;;;;;;;14.52;2.38;;;7.60;99.90;;;;;;5013610;28;20065;-61
2023/12/26 10:15:02;;;;;;;18.83;3.03;;;7.60;99.90;;;;;;5013468;28;20046;-62
2023/12/26 10:17:29;;;;;;;15.50;3.03;;;7.60;99.90;;;;;;5013987;28;20427;-62
2023/12/26 10:19:57;;;;;;;12.20;2.40;;;7.60;99.90;;;;;;5014075;28;20034;-58
2023/12/26 10:22:24;;;;;;;11.55;2.28;;;7.60;99.90;;;;;;5014206;28;20451;-58
2023/12/26 10:24:51;;;;;;;13.52;3.75;;;7.60;99.90;;;;;;5012724;28;20376;-61
2023/12/26 10:27:18;;;;;;;17.17;2.45;;;7.60;99.90;;;;;;5012494;28;20053;-62
2023/12/26 10:29:45;;;;;;;13.75;3.20;;;7.60;99.90;;;;;;5013468;28;20466;-62
2023/12/26 10:32:11;;;;;;;12.52;2.85;;;7.60;99.90;;;;;;5013503;28;20506;-62
2023/12/26 10:34:39;;;;;;;17.38;2.90;;;7.70;99.90;;;;;;5013402;28;20112;-59
2023/12/26 10:37:08;;;;;;;16.02;2.67;;;7.70;99.90;;;;;;5013552;28;20038;-59
2023/12/26 10:39:35;;;;;;;14.60;2.50;;;7.70;99.90;;;;;;5013372;28;20506;-58
2023/12/26 10:42:02;;;;;;;17.30;3.13;;;7.70;99.90;;;;;;5013682;28;20034;-59
2023/12/26 10:47:19;;;;;;;14.82;3.33;;;7.80;99.90;;;;;;5012933;28;20052;-63
2023/12/26 10:49:46;;;;;;;17.48;3.10;;;7.80;99.90;;;;;;5013794;28;20047;-63
2023/12/26 10:52:13;;;;;;;12.07;2.97;;;7.80;99.90;;;;;;5012349;28;20437;-64
2023/12/26 10:54:40;;;;;;;13.77;2.85;;;7.80;99.90;;;;;;5013124;28;20050;-64
2023/12/26 10:57:07;;;;;;;13.68;2.70;;;7.80;99.90;;;;;;5013566;28;20390;-64
2023/12/26 13:54:21;;;;;;;9.60;2.20;;;8.80;99.90;;;;;;5014579;28;20077;-64
2023/12/26 13:56:48;;;;;;;13.55;2.70;;;8.80;99.90;;;;;;5014611;28;20085;-64
2023/12/26 13:59:14;;;;;;;14.55;3.30;;;8.80;99.90;;;;;;5014525;28;20038;-64
2023/12/26 14:01:41;;;;;;;11.90;2.95;;;8.90;99.90;;;;;;5014574;28;20053;-64
2023/12/26 14:04:08;;;;;;;11.85;2.60;;;8.90;99.90;;;;;;5014063;28;20038;-59
2023/12/26 14:06:35;;;;;;;10.05;2.53;;;8.80;99.90;;;;;;5012843;28;20137;-60
2023/12/26 14:09:03;;;;;;;10.40;2.40;;;8.90;99.90;;;;;;5014441;28;20041;-60
2023/12/26 14:11:30;;;;;;;12.27;2.25;;;8.80;99.90;;;;;;5014288;28;20119;-60
2023/12/26 14:13:57;;;;;;;15.05;2.78;;;8.80;99.90;;;;;;5014270;28;20060;-60
2023/12/26 14:16:24;;;;;;;13.40;2.40;;;8.80;99.90;;;;;;5014136;28;20111;-60
2023/12/26 14:18:51;;;;;;;9.88;2.30;;;8.80;99.90;;;;;;5014476;28;20100;-60
2023/12/26 14:21:18;;;;;;;13.90;3.05;;;8.80;99.90;;;;;;5012804;28;20034;-60
2023/12/26 14:23:45;;;;;;;10.00;2.50;;;8.80;99.90;;;;;;5013836;28;20433;-60
2023/12/26 14:26:12;;;;;;;13.07;2.85;;;8.80;99.90;;;;;;5013920;28;20051;-60
2023/12/26 14:28:39;;;;;;;13.25;2.97;;;8.70;99.90;;;;;;5013506;28;20034;-60
2023/12/26 14:31:06;;;;;;;11.68;2.70;;;8.70;99.90;;;;;;5012415;28;20045;-60
2023/12/26 14:33:33;;;;;;;12.45;3.00;;;8.70;99.90;;;;;;5013868;28;20046;-60
2023/12/26 14:36:00;;;;;;;15.40;4.07;;;8.70;99.90;;;;;;5013728;28;20112;-60
2023/12/26 14:38:27;;;;;;;13.93;2.75;;;8.70;99.90;;;;;;5013751;28;20088;-60
2023/12/26 14:40:57;;;;;;;13.30;3.33;;;8.70;99.90;;;;;;5012336;28;20038;-60
2023/12/26 14:43:23;;;;;;;9.55;2.80;;;8.70;99.90;;;;;;5013876;28;20459;-63
2023/12/26 14:45:50;;;;;;;14.25;3.53;;;8.70;99.90;;;;;;5014648;28;20084;-64
2023/12/26 14:48:17;;;;;;;19.77;3.47;;;8.70;99.90;;;;;;5014901;28;20053;-64
2023/12/26 14:50:44;;;;;;;13.68;2.55;;;8.70;99.90;;;;;;5013202;28;20112;-59
2023/12/26 14:53:11;;;;;;;14.55;3.05;;;8.70;99.90;;;;;;5013837;28;20045;-63
2023/12/26 14:55:38;;;;;;;13.77;3.33;;;8.60;99.90;;;;;;5013484;28;20065;-64
2023/12/26 14:58:05;;;;;;;12.45;3.17;;;8.70;99.90;;;;;;5013592;28;20427;-64
2023/12/26 15:00:32;;;;;;;9.00;2.42;;;8.60;99.90;;;;;;5013619;28;20038;-64
2023/12/26 15:02:59;;;;;;;13.40;2.83;;;8.60;99.90;;;;;;5013175;28;20416;-64
2023/12/26 15:05:26;;;;;;;9.80;2.63;;;8.60;99.90;;;;;;5013521;28;20355;-64
2023/12/26 15:07:53;;;;;;;14.10;2.67;;;8.60;99.90;;;;;;5012128;28;20429;-63
2023/12/26 15:10:20;;;;;;;14.45;3.53;;;8.60;99.90;;;;;;5013706;28;20038;-63
2023/12/26 15:12:46;;;;;;;10.85;3.10;;;8.50;99.90;;;;;;5013423;28;20052;-63
2023/12/26 15:15:13;;;;;;;13.70;3.10;;;8.50;99.90;;;;;;5012066;28;20042;-63
2023/12/26 15:17:40;;;;;;;15.82;2.90;;;8.50;99.90;;;;;;5013192;28;20096;-63
2023/12/26 15:20:08;;;;;;;10.73;2.65;;;8.40;99.90;;;;;;5013425;28;20100;-62
2023/12/26 15:22:38;;;;;;;12.43;4.00;;;8.40;99.90;;;;;;5013379;28;20046;-62
2023/12/26 15:25:05;;;;;;;18.92;5.00;;;8.30;99.90;;;;;;5013289;28;20038;-63
2023/12/26 15:27:32;;;;;;;13.05;4.45;;;8.30;99.90;;;;;;5013390;28;20048;-63
2023/12/26 15:29:58;;;;;;;12.35;3.03;;;8.20;99.90;;;;;;5013433;28;20450;-63
2023/12/26 15:32:26;;;;;;;15.65;3.78;;;8.20;99.90;;;;;;5015082;28;20046;-62
2023/12/26 15:34:53;;;;;;;9.88;2.83;;;8.10;99.90;;;;;;5017302;28;20061;-63
2023/12/26 15:37:20;;;;;;;12.82;3.33;;;8.10;99.90;;;;;;5017456;28;20045;-63
2023/12/26 15:39:47;;;;;;;17.05;5.15;;;8.00;99.90;;;;;;5017413;28;20052;-59
2023/12/26 15:42:14;;;;;;;12.23;3.63;;;7.90;99.90;;;;;;5017503;28;20045;-59
2023/12/26 15:44:41;;;;;;;13.15;4.13;;;7.90;99.90;;;;;;5017160;28;20056;-60